Pagrindinis puslapis
METAR-TAF:

METAR-TAF

Oro uostai :

Noorvik, Aliaska, Jungtinės Amerikos Valstijos

platuma: 66-49-03N, ilguma: 161-01-20W, Aukštis: 17 m

Dabartinis oras

Ataskaita buvo paskelbta 4 minutes, ne 20:56 UTC
Vėjas 11 kt iš Rytų/Šiaurės Rytų
Temperatūra -1°C
Drėgmė 86%
Slėgis 1035 hPa
Matomumas: 11.3 km
Apsiniaukę ne aukštis 2500 ft

METAR: PFNO 222056Z AUTO 07011KT 7SM OVC025 M01/M03 A3056 RMK AO2 SLP436 T10111028 55000 FZRANO

Laikas: 13:00 (21:00 UTC)


TAF: trūkstamas

Orai ataskaitas ir orų prognozės (METAR, TAF).

turimą stotys yra geltonos ir raudonos taškus žemėlapyje.

Perkelti pele per norėdami pamatyti stoties vardą.

Tada spustelėkite, norėdami matyti oro stebėjimo ir prognozės.

Norėdami pakeisti žemėlapį: spustelėkite ant žalios mygtukų su juodo kryžiaus žemyn,; žalią mygtuką su brūkšneliu, jei norite nutolinti; arba žalių rodyklių gretimoms žemėlapius.


METAR-TAF: